Time;durP1;ratioP1;P1;durP2;ratioP2;P2;SDS_P1;SDS_P2;PMS_P1;PMS_P2;Temp;Humidity;BMP_temperature;BMP_pressure;BME280_temperature;BME280_humidity;BME280_pressure;Samples;Min_cycle;Max_cycle;Signal;HPM_P1;HPM_P2
2022/07/19 00:00:15;;;;;;;4.17;2.40;;;;;;;25.20;50.11;100517.16;5071769;28;20183;-62
2022/07/19 00:02:41;;;;;;;4.10;2.30;;;;;;;25.21;50.12;100515.06;5070804;28;20253;-62
2022/07/19 00:05:07;;;;;;;4.97;2.20;;;;;;;25.22;49.99;100516.72;5071873;28;20445;-62
2022/07/19 00:07:33;;;;;;;4.73;2.30;;;;;;;25.21;49.82;100515.91;5071533;28;20317;-62
2022/07/19 00:09:58;;;;;;;7.27;2.30;;;;;;;25.19;49.56;100512.59;5088444;28;20590;-62
2022/07/19 00:12:24;;;;;;;7.30;2.33;;;;;;;25.18;49.96;100516.72;5091621;28;20174;-62
2022/07/19 00:14:49;;;;;;;5.70;1.93;;;;;;;25.17;49.64;100515.09;5091315;28;20186;-62
2022/07/19 00:17:15;;;;;;;2.97;1.87;;;;;;;25.17;50.04;100520.88;5090858;28;20179;-62
2022/07/19 00:19:40;;;;;;;7.50;2.37;;;;;;;25.17;50.07;100526.66;5090240;28;20563;-62
2022/07/19 00:22:06;;;;;;;3.97;2.37;;;;;;;25.18;50.03;100521.72;5090250;28;20171;-62
2022/07/19 00:24:31;;;;;;;5.40;2.10;;;;;;;25.17;49.87;100520.03;5089910;28;20185;-62
2022/07/19 00:26:57;;;;;;;5.53;2.17;;;;;;;25.17;49.96;100520.88;5090009;28;20246;-62
2022/07/19 00:29:22;;;;;;;4.77;2.30;;;;;;;25.19;50.30;100511.78;5089759;28;20202;-62
2022/07/19 00:31:47;;;;;;;3.00;1.90;;;;;;;25.20;50.34;100522.09;5090352;28;20190;-62
2022/07/19 00:34:13;;;;;;;3.60;2.50;;;;;;;25.20;50.09;100530.78;5091534;28;20205;-62
2022/07/19 00:36:38;;;;;;;8.87;2.63;;;;;;;25.19;49.87;100518.38;5090165;28;20185;-62
2022/07/19 00:39:04;;;;;;;4.10;2.40;;;;;;;25.18;50.20;100522.50;5091251;28;20158;-62
2022/07/19 00:41:29;;;;;;;4.97;2.20;;;;;;;25.19;50.18;100520.47;5090909;28;20200;-62
2022/07/19 00:43:56;;;;;;;5.43;2.33;;;;;;;25.18;50.13;100522.50;5090586;28;20530;-62
2022/07/19 00:46:22;;;;;;;5.90;2.40;;;;;;;25.17;50.59;100520.88;5090229;28;20647;-62
2022/07/19 00:48:50;;;;;;;5.80;2.10;;;;;;;25.19;50.32;100517.56;5090368;28;20448;-62
2022/07/19 00:51:16;;;;;;;3.17;1.83;;;;;;;25.20;50.11;100517.16;5090146;28;20185;-62
2022/07/19 00:53:42;;;;;;;5.10;2.20;;;;;;;25.19;50.12;100514.69;5090004;28;21112;-62
2022/07/19 00:56:08;;;;;;;8.73;2.27;;;;;;;25.19;50.27;100512.59;5083539;28;20468;-62
2022/07/19 00:58:34;;;;;;;4.33;2.20;;;;;;;25.20;49.84;100513.44;5071188;28;20175;-62
2022/07/19 01:01:01;;;;;;;6.40;2.50;;;;;;;25.17;49.97;100517.97;5090952;28;20507;-62
2022/07/19 01:03:26;;;;;;;5.13;2.53;;;;;;;25.16;50.35;100513.44;5091404;28;20424;-62
2022/07/19 01:05:52;;;;;;;3.13;1.93;;;;;;;25.17;50.31;100511.38;5091191;28;20931;-62
2022/07/19 01:08:17;;;;;;;3.07;2.00;;;;;;;25.18;50.23;100515.94;5090513;28;20223;-62
2022/07/19 01:10:43;;;;;;;3.40;2.13;;;;;;;25.18;50.15;100510.16;5091079;28;20171;-62
2022/07/19 01:13:08;;;;;;;7.93;2.40;;;;;;;25.18;50.38;100513.84;5091052;28;20189;-62
2022/07/19 01:15:34;;;;;;;4.70;2.70;;;;;;;25.17;50.19;100520.88;5089632;28;20182;-62
2022/07/19 01:17:59;;;;;;;4.07;2.20;;;;;;;25.13;49.92;100514.28;5090900;28;20154;-62
2022/07/19 01:20:25;;;;;;;8.57;3.07;;;;;;;25.12;50.16;100517.59;5090694;28;20667;-62
2022/07/19 01:22:50;;;;;;;5.00;2.50;;;;;;;25.09;49.90;100507.69;5090970;28;20155;-62
2022/07/19 01:25:16;;;;;;;5.90;2.70;;;;;;;25.08;49.93;100508.94;5091003;28;20630;-62
2022/07/19 01:27:45;;;;;;;4.40;2.47;;;;;;;25.08;50.00;100511.84;5083344;28;20213;-62
2022/07/19 01:30:16;;;;;;;4.90;2.10;;;;;;;25.06;50.07;100502.78;5089489;28;20182;-62
2022/07/19 01:32:42;;;;;;;6.90;2.83;;;;;;;25.06;49.76;100508.56;5089485;28;20828;-62
2022/07/19 01:35:08;;;;;;;3.33;2.23;;;;;;;25.08;50.13;100505.25;5089410;28;20428;-62
2022/07/19 01:37:34;;;;;;;7.57;2.50;;;;;;;25.08;49.86;100511.03;5089388;28;20235;-62
2022/07/19 01:39:59;;;;;;;3.97;2.30;;;;;;;25.10;49.42;100512.25;5089484;28;20668;-62
2022/07/19 01:42:25;;;;;;;4.00;2.40;;;;;;;25.11;49.93;100504.38;5089206;28;20412;-63
2022/07/19 01:44:50;;;;;;;5.83;1.83;;;;;;;25.11;50.45;100510.16;5090341;28;20177;-62
2022/07/19 01:47:16;;;;;;;5.03;1.87;;;;;;;25.11;50.25;100504.38;5090459;28;20188;-62
2022/07/19 01:49:41;;;;;;;3.97;2.23;;;;;;;25.12;50.50;100495.31;5090384;28;20175;-62
2022/07/19 01:52:07;;;;;;;5.57;2.20;;;;;;;25.11;50.09;100495.72;5090766;28;20174;-62
2022/07/19 01:54:32;;;;;;;4.83;2.97;;;;;;;25.11;49.94;100493.66;5090630;28;20174;-62
2022/07/19 01:56:58;;;;;;;4.40;2.53;;;;;;;25.11;50.29;100493.66;5090663;28;20264;-62
2022/07/19 01:59:24;;;;;;;5.67;2.70;;;;;;;25.11;49.88;100487.06;5090399;28;20174;-62
2022/07/19 02:01:49;;;;;;;4.77;2.40;;;;;;;25.10;49.68;100492.03;5090670;28;20228;-62
2022/07/19 02:04:14;;;;;;;4.50;2.20;;;;;;;25.08;50.09;100482.94;5090467;28;20193;-62
2022/07/19 02:06:40;;;;;;;5.40;2.60;;;;;;;25.08;50.15;100482.94;5090608;28;20653;-61
2022/07/19 02:09:05;;;;;;;4.90;2.23;;;;;;;25.09;49.90;100478.00;5090157;28;20311;-61
2022/07/19 02:11:37;;;;;;;4.07;2.23;;;;;;;25.08;49.88;100480.03;5090395;28;20182;-61
2022/07/19 02:14:03;;;;;;;8.13;2.70;;;;;;;25.09;50.30;100478.00;5088660;28;20167;-61
2022/07/19 02:16:29;;;;;;;6.60;2.40;;;;;;;25.08;50.40;100476.34;5090082;28;20421;-61
2022/07/19 02:18:54;;;;;;;5.33;2.20;;;;;;;25.08;50.04;100471.38;5090012;28;20981;-61
2022/07/19 02:21:20;;;;;;;5.23;2.27;;;;;;;25.07;50.29;100475.53;5089941;28;20206;-61
2022/07/19 02:23:45;;;;;;;6.13;2.27;;;;;;;25.08;50.14;100471.38;5090461;28;20174;-61
2022/07/19 02:26:10;;;;;;;3.17;2.20;;;;;;;25.08;50.04;100464.78;5091583;28;20277;-61
2022/07/19 02:28:36;;;;;;;6.23;2.40;;;;;;;25.07;50.07;100463.97;5093788;28;20209;-61
2022/07/19 02:31:01;;;;;;;5.13;2.60;;;;;;;25.07;49.84;100463.13;5094142;28;20173;-61
2022/07/19 02:33:27;;;;;;;3.33;2.07;;;;;;;25.06;49.84;100456.53;5093565;28;20170;-61
2022/07/19 02:35:52;;;;;;;4.20;2.20;;;;;;;25.06;49.99;100449.94;5093581;28;20175;-61
2022/07/19 02:38:17;;;;;;;5.90;2.37;;;;;;;25.05;49.79;100454.91;5094174;28;20178;-61
2022/07/19 02:40:43;;;;;;;6.50;2.17;;;;;;;25.06;50.12;100464.38;5092410;28;20178;-61
2022/07/19 02:43:08;;;;;;;3.17;2.00;;;;;;;25.05;50.05;100457.78;5094025;28;20595;-61
2022/07/19 02:45:34;;;;;;;7.00;2.90;;;;;;;25.05;49.89;100466.47;5092308;28;20515;-61
2022/07/19 02:48:00;;;;;;;3.73;2.47;;;;;;;25.05;49.67;100459.84;5092139;28;20201;-61
2022/07/19 02:50:26;;;;;;;5.53;2.40;;;;;;;25.04;49.92;100461.91;5091778;28;20201;-61
2022/07/19 02:52:51;;;;;;;4.23;2.70;;;;;;;25.02;49.68;100464.41;5092093;28;20400;-62
2022/07/19 02:55:16;;;;;;;3.67;2.33;;;;;;;25.01;49.82;100474.31;5093169;28;20178;-62
2022/07/19 02:57:42;;;;;;;4.50;2.33;;;;;;;25.00;49.81;100464.00;5072572;28;20175;-62
2022/07/19 03:00:12;;;;;;;4.30;2.57;;;;;;;25.01;49.95;100464.81;5071204;28;20538;-62
2022/07/19 03:02:38;;;;;;;3.73;2.40;;;;;;;25.00;49.91;100454.50;5071293;28;20174;-62
2022/07/19 03:05:04;;;;;;;5.00;2.40;;;;;;;24.99;49.92;100455.75;5071109;28;20773;-62
2022/07/19 03:07:29;;;;;;;5.63;2.57;;;;;;;24.99;50.08;100462.34;5070886;28;20423;-62
2022/07/19 03:09:55;;;;;;;5.30;2.50;;;;;;;24.99;49.85;100462.34;5071006;28;20230;-62
2022/07/19 03:12:20;;;;;;;4.33;2.40;;;;;;;25.00;49.61;100468.97;5071324;28;20179;-62
2022/07/19 03:14:46;;;;;;;3.90;2.27;;;;;;;25.00;49.87;100469.78;5072799;28;20662;-62
2022/07/19 03:17:12;;;;;;;3.70;2.27;;;;;;;24.99;49.59;100473.91;5072901;28;20240;-62
2022/07/19 03:19:37;;;;;;;4.53;2.83;;;;;;;24.97;49.57;100470.63;5079233;28;20417;-62
2022/07/19 03:22:03;;;;;;;3.10;1.87;;;;;;;24.96;49.81;100463.19;5093053;28;20558;-62
2022/07/19 03:24:28;;;;;;;4.53;3.00;;;;;;;24.95;49.48;100470.22;5092784;28;20541;-62
2022/07/19 03:26:53;;;;;;;3.83;2.33;;;;;;;24.95;49.61;100460.72;5085359;28;20720;-62
2022/07/19 03:29:19;;;;;;;3.87;2.30;;;;;;;24.93;49.41;100452.47;5092863;28;20206;-62
2022/07/19 03:31:44;;;;;;;7.37;2.60;;;;;;;24.92;49.41;100450.84;5092780;28;20174;-62
2022/07/19 03:34:10;;;;;;;9.43;3.23;;;;;;;24.90;49.17;100458.28;5092510;28;20542;-62
2022/07/19 03:36:35;;;;;;;6.10;2.57;;;;;;;24.85;49.16;100453.78;5092715;28;20198;-62
2022/07/19 03:39:01;;;;;;;4.70;2.73;;;;;;;24.84;49.59;100457.88;5092879;28;20174;-62
2022/07/19 03:41:26;;;;;;;4.47;2.63;;;;;;;24.83;49.33;100467.81;5092782;28;20178;-62
2022/07/19 03:43:51;;;;;;;5.87;2.80;;;;;;;24.85;49.24;100461.59;5092139;28;20228;-62
2022/07/19 03:46:18;;;;;;;4.40;2.43;;;;;;;24.87;49.31;100453.34;5092445;28;20595;-62
2022/07/19 03:48:43;;;;;;;4.33;2.40;;;;;;;24.86;49.46;100472.75;5092034;28;20229;-62
2022/07/19 03:51:08;;;;;;;5.80;2.57;;;;;;;24.86;49.44;100463.25;5092338;28;20801;-62
2022/07/19 03:53:34;;;;;;;3.93;2.23;;;;;;;24.85;49.33;100473.16;5092521;28;20177;-62
2022/07/19 03:56:00;;;;;;;3.93;2.17;;;;;;;24.87;49.14;100465.72;5090789;28;20194;-62
2022/07/19 03:58:25;;;;;;;4.80;2.40;;;;;;;24.86;49.36;100469.84;5090830;28;20253;-62
2022/07/19 04:00:51;;;;;;;4.07;2.33;;;;;;;24.86;49.45;100464.09;5090479;28;20179;-62
2022/07/19 04:03:16;;;;;;;4.20;2.50;;;;;;;24.87;49.31;100477.28;5090582;28;20200;-62
2022/07/19 04:05:42;;;;;;;3.87;2.30;;;;;;;24.87;49.57;100480.16;5090158;28;20213;-62
2022/07/19 04:08:07;;;;;;;3.00;2.17;;;;;;;24.88;49.24;100478.13;5088979;28;20207;-62
2022/07/19 04:10:32;;;;;;;5.60;2.67;;;;;;;24.88;49.13;100478.91;5090810;28;20209;-62
2022/07/19 04:12:58;;;;;;;3.63;2.27;;;;;;;24.88;49.33;100490.47;5090428;28;20178;-62
2022/07/19 04:15:23;;;;;;;6.10;2.57;;;;;;;24.87;49.45;100485.94;5090498;28;20685;-62
2022/07/19 04:17:49;;;;;;;3.30;2.30;;;;;;;24.87;49.14;100493.78;5090211;28;20174;-62
2022/07/19 04:20:14;;;;;;;4.00;2.53;;;;;;;24.84;49.15;100489.66;5090426;28;20171;-62
2022/07/19 04:22:40;;;;;;;5.40;2.20;;;;;;;24.85;49.54;100494.22;5090306;28;20158;-62
2022/07/19 04:25:09;;;;;;;7.23;2.83;;;;;;;24.85;49.08;100484.72;5090174;28;20185;-62
2022/07/19 04:27:34;;;;;;;3.63;2.60;;;;;;;24.85;49.32;100490.50;5091265;28;20626;-62
2022/07/19 04:29:59;;;;;;;3.50;2.43;;;;;;;24.85;49.11;100490.50;5090429;28;20478;-62
2022/07/19 04:32:25;;;;;;;5.60;2.80;;;;;;;24.84;49.24;100483.88;5091498;28;20182;-62
2022/07/19 04:34:50;;;;;;;5.77;2.23;;;;;;;24.83;49.10;100490.91;5091229;28;20154;-62
2022/07/19 04:37:16;;;;;;;4.20;2.53;;;;;;;24.83;48.85;100502.47;5090815;28;20174;-62
2022/07/19 04:39:41;;;;;;;5.60;2.60;;;;;;;24.85;48.92;100497.09;5090448;28;20202;-62
2022/07/19 04:42:07;;;;;;;5.07;2.67;;;;;;;24.88;49.00;100504.09;5090365;28;20181;-62
2022/07/19 04:44:32;;;;;;;4.10;2.47;;;;;;;24.88;49.26;100496.25;5090415;28;20637;-62
2022/07/19 04:46:58;;;;;;;7.10;2.97;;;;;;;24.92;49.22;100502.00;5090091;28;20182;-62
2022/07/19 04:49:23;;;;;;;6.23;2.60;;;;;;;24.94;48.99;100505.31;5089538;28;20194;-62
2022/07/19 04:51:49;;;;;;;4.57;2.43;;;;;;;24.95;48.94;100504.91;5091480;28;20546;-62
2022/07/19 04:54:14;;;;;;;4.53;2.30;;;;;;;24.96;48.82;100503.66;5090411;28;20197;-62
2022/07/19 04:56:39;;;;;;;4.07;2.20;;;;;;;24.97;48.97;100499.50;5077597;28;20186;-62
2022/07/19 04:59:05;;;;;;;4.33;2.60;;;;;;;24.99;48.90;100507.75;5068917;28;20186;-61
2022/07/19 05:01:30;;;;;;;3.60;2.30;;;;;;;25.00;49.16;100500.75;5068574;28;20175;-61
2022/07/19 05:03:56;;;;;;;6.50;2.93;;;;;;;25.01;49.13;100506.09;5069157;28;20236;-62
2022/07/19 05:06:24;;;;;;;4.00;2.50;;;;;;;25.01;49.04;100506.09;5081280;28;20198;-62
2022/07/19 05:08:51;;;;;;;4.47;2.83;;;;;;;25.02;48.59;100512.69;5088072;28;20490;-62
2022/07/19 05:11:16;;;;;;;4.47;2.43;;;;;;;25.00;48.98;100504.47;5088920;28;20417;-62
2022/07/19 05:13:41;;;;;;;5.10;3.17;;;;;;;24.98;48.96;100504.03;5090183;28;20493;-62
2022/07/19 05:16:07;;;;;;;4.30;2.90;;;;;;;24.96;48.97;100506.53;5089868;28;20187;-62
2022/07/19 05:18:32;;;;;;;5.77;2.93;;;;;;;24.95;49.18;100513.56;5090380;28;20181;-62
2022/07/19 05:20:58;;;;;;;5.60;2.70;;;;;;;24.94;48.94;100517.66;5090451;28;20230;-62
2022/07/19 05:23:23;;;;;;;4.57;2.47;;;;;;;24.94;49.04;100511.09;5090717;28;20268;-62
2022/07/19 05:25:49;;;;;;;6.40;3.17;;;;;;;24.93;49.33;100513.16;5086409;28;20204;-62
2022/07/19 05:28:14;;;;;;;5.77;2.93;;;;;;;24.93;49.10;100510.25;5087687;28;20267;-62
2022/07/19 05:30:41;;;;;;;6.07;3.33;;;;;;;24.93;49.31;100516.03;5090125;28;20178;-62
2022/07/19 05:33:06;;;;;;;4.27;2.87;;;;;;;24.94;48.83;100514.78;5089595;28;20600;-62
2022/07/19 05:35:32;;;;;;;5.67;2.80;;;;;;;24.94;49.31;100517.66;5089363;28;20448;-62
2022/07/19 05:37:57;;;;;;;5.10;2.97;;;;;;;24.93;49.58;100513.16;5090247;28;20537;-62
2022/07/19 05:40:23;;;;;;;4.80;2.93;;;;;;;24.94;49.07;100517.66;5090468;28;20562;-61
2022/07/19 05:42:48;;;;;;;4.83;2.80;;;;;;;24.95;48.90;100515.63;5090611;28;20182;-61
2022/07/19 05:45:14;;;;;;;5.83;3.33;;;;;;;24.60;49.45;100507.09;5087249;28;20186;-63
2022/07/19 05:47:39;;;;;;;9.27;3.10;;;;;;;24.81;50.86;100516.50;5088948;28;20186;-64
2022/07/19 05:50:05;;;;;;;10.43;4.10;;;;;;;25.02;50.13;100512.69;5087469;28;20178;-63
2022/07/19 05:52:31;;;;;;;7.80;4.30;;;;;;;25.48;53.54;100510.41;5088668;28;20640;-63
2022/07/19 05:54:56;;;;;;;7.83;5.37;;;;;;;25.49;53.13;100509.16;5089414;28;20412;-63
2022/07/19 05:57:22;;;;;;;12.30;4.43;;;;;;;25.31;51.79;100515.06;5089032;28;20235;-63
2022/07/19 05:59:48;;;;;;;11.70;4.13;;;;;;;25.19;52.21;100514.69;5087080;28;20178;-63
2022/07/19 06:02:14;;;;;;;10.83;3.93;;;;;;;25.17;52.56;100517.97;5091971;28;20190;-64
2022/07/19 06:04:40;;;;;;;10.63;3.87;;;;;;;25.07;51.48;100524.63;5092139;28;20473;-64
2022/07/19 06:07:05;;;;;;;7.33;3.23;;;;;;;25.12;51.40;100524.19;5092699;28;20452;-64
2022/07/19 06:09:31;;;;;;;9.13;3.03;;;;;;;25.03;50.72;100523.81;5091450;28;20598;-66
2022/07/19 06:11:56;;;;;;;21.40;4.87;;;;;;;25.08;50.94;100522.59;5092880;28;20170;-64
2022/07/19 06:14:21;;;;;;;10.77;3.80;;;;;;;25.03;50.76;100525.91;5091828;28;20601;-63
2022/07/19 06:16:47;;;;;;;6.53;3.60;;;;;;;25.09;49.86;100524.22;5091955;28;20186;-64
2022/07/19 06:19:12;;;;;;;7.60;3.40;;;;;;;25.07;50.16;100518.84;5091364;28;20179;-64
2022/07/19 06:21:38;;;;;;;6.77;3.37;;;;;;;25.08;50.18;100523.38;5092687;28;20706;-63
2022/07/19 06:24:04;;;;;;;8.23;3.50;;;;;;;25.09;49.73;100525.03;5092339;28;20166;-63
2022/07/19 06:26:29;;;;;;;8.57;3.40;;;;;;;25.09;49.97;100519.25;5084694;28;20285;-64
2022/07/19 06:28:55;;;;;;;11.20;3.63;;;;;;;25.11;50.65;100524.63;5091530;28;20568;-64
2022/07/19 06:31:20;;;;;;;10.80;4.70;;;;;;;25.10;49.71;100523.81;5091700;28;20586;-64
2022/07/19 06:33:48;;;;;;;9.83;3.77;;;;;;;25.15;50.85;100528.31;5092009;28;20194;-63
2022/07/19 06:36:13;;;;;;;8.73;4.00;;;;;;;25.05;51.17;100530.03;5092383;28;20166;-64
2022/07/19 06:38:39;;;;;;;7.53;3.70;;;;;;;25.13;51.02;100522.16;5092454;28;20847;-63
2022/07/19 06:41:04;;;;;;;8.50;3.90;;;;;;;25.04;50.79;100516.00;5091724;28;20189;-63
2022/07/19 06:43:30;;;;;;;7.20;3.77;;;;;;;25.09;50.98;100509.78;5091380;28;20209;-63
2022/07/19 06:45:55;;;;;;;7.60;3.50;;;;;;;25.06;51.11;100516.38;5091991;28;20673;-63
2022/07/19 06:48:21;;;;;;;7.60;3.87;;;;;;;25.00;50.64;100510.25;5091741;28;20579;-63
2022/07/19 06:50:46;;;;;;;8.50;3.43;;;;;;;24.94;50.95;100500.34;5091594;28;20661;-63
2022/07/19 06:53:12;;;;;;;8.77;3.50;;;;;;;24.62;51.22;100510.38;5091832;28;20178;-63
2022/07/19 06:55:37;;;;;;;11.40;3.73;;;;;;;24.75;50.44;100500.03;5089155;28;20179;-63
2022/07/19 06:58:03;;;;;;;11.43;4.10;;;;;;;24.79;50.76;100504.53;5072985;28;20171;-63
2022/07/19 07:00:28;;;;;;;9.97;3.10;;;;;;;24.81;50.58;100495.44;5090626;28;20178;-62
2022/07/19 07:02:53;;;;;;;11.80;3.50;;;;;;;24.89;51.01;100500.78;5091526;28;20182;-61
2022/07/19 07:05:19;;;;;;;8.90;3.50;;;;;;;24.88;50.88;100496.25;5091295;28;20189;-61
2022/07/19 07:07:44;;;;;;;10.23;3.57;;;;;;;24.94;50.79;100497.44;5091051;28;20550;-61
2022/07/19 07:10:10;;;;;;;11.33;3.93;;;;;;;24.92;50.61;100494.16;5090112;28;20226;-63
2022/07/19 07:12:36;;;;;;;7.60;3.43;;;;;;;25.01;50.63;100497.44;5090459;28;20588;-63
2022/07/19 07:15:01;;;;;;;10.23;3.67;;;;;;;24.96;51.13;100503.66;5089606;28;20167;-64
2022/07/19 07:17:26;;;;;;;7.67;4.10;;;;;;;25.00;51.16;100507.34;5089838;28;20558;-62
2022/07/19 07:19:52;;;;;;;11.93;4.33;;;;;;;25.05;51.12;100503.19;5090965;28;20529;-61
2022/07/19 07:22:17;;;;;;;10.10;4.40;;;;;;;25.11;50.50;100499.44;5091513;28;20171;-61
2022/07/19 07:24:43;;;;;;;6.37;3.50;;;;;;;25.10;50.87;100509.38;5092449;28;20190;-61
2022/07/19 07:27:08;;;;;;;9.10;3.40;;;;;;;25.08;50.85;100506.06;5092472;28;20174;-61
2022/07/19 07:29:34;;;;;;;12.57;3.87;;;;;;;25.12;51.07;100506.88;5092504;28;20217;-61
2022/07/19 07:31:59;;;;;;;7.90;3.80;;;;;;;25.09;50.98;100507.69;5092430;28;20185;-61
2022/07/19 07:34:24;;;;;;;10.40;3.57;;;;;;;25.07;50.94;100504.41;5092504;28;20186;-61
2022/07/19 07:36:50;;;;;;;11.67;4.10;;;;;;;25.12;50.61;100498.19;5092605;28;20170;-61
2022/07/19 07:39:15;;;;;;;13.23;3.43;;;;;;;25.15;50.99;100500.25;5091783;28;20227;-61
2022/07/19 07:41:41;;;;;;;11.17;3.63;;;;;;;25.12;50.81;100489.53;5089762;28;20179;-61
2022/07/19 07:44:06;;;;;;;8.63;3.30;;;;;;;25.18;50.81;100487.84;5091066;28;20177;-61
2022/07/19 07:46:32;;;;;;;6.40;3.17;;;;;;;25.18;50.63;100493.63;5092046;28;20171;-61
2022/07/19 07:48:57;;;;;;;9.40;3.30;;;;;;;25.18;50.59;100484.94;5092170;28;20565;-61
2022/07/19 07:51:23;;;;;;;11.93;3.73;;;;;;;25.19;50.80;100486.59;5092318;28;20544;-61
2022/07/19 07:53:48;;;;;;;10.33;3.47;;;;;;;25.21;50.60;100481.22;5091440;28;20191;-61
2022/07/19 07:56:14;;;;;;;6.60;3.57;;;;;;;25.21;50.82;100489.06;5082886;28;20191;-61
2022/07/19 07:58:39;;;;;;;5.97;3.57;;;;;;;25.23;50.32;100490.28;5070442;28;20171;-61
2022/07/19 08:01:05;;;;;;;8.00;3.10;;;;;;;25.23;50.43;100483.69;5085336;28;20630;-61
2022/07/19 08:03:30;;;;;;;6.73;3.43;;;;;;;25.23;50.63;100481.59;5090702;28;20265;-61
2022/07/19 08:05:57;;;;;;;7.07;3.03;;;;;;;25.26;50.58;100483.69;5091237;28;20201;-61
2022/07/19 08:08:26;;;;;;;9.03;3.47;;;;;;;25.26;50.43;100477.91;5091641;28;20267;-61
2022/07/19 08:10:54;;;;;;;7.63;3.40;;;;;;;25.28;50.54;100480.41;5090516;28;20945;-61
2022/07/19 08:13:20;;;;;;;8.43;3.27;;;;;;;25.29;50.23;100479.94;5089774;28;20412;-62
2022/07/19 08:15:45;;;;;;;8.67;3.80;;;;;;;25.30;50.26;100489.44;5089787;28;20442;-62
2022/07/19 08:18:11;;;;;;;5.13;3.20;;;;;;;25.31;50.58;100480.38;5089960;28;20495;-62
2022/07/19 08:20:36;;;;;;;8.07;3.30;;;;;;;25.37;50.30;100474.94;5089918;28;20185;-62
2022/07/19 08:23:02;;;;;;;10.47;3.80;;;;;;;25.37;50.60;100481.56;5088467;28;20190;-62
2022/07/19 08:25:27;;;;;;;5.03;3.10;;;;;;;25.37;50.80;100478.66;5089874;28;20178;-62
2022/07/19 08:27:53;;;;;;;5.80;3.00;;;;;;;25.38;50.70;100474.53;5089909;28;20182;-62
2022/07/19 08:30:18;;;;;;;8.87;3.20;;;;;;;25.41;50.19;100481.53;5090303;28;20178;-62
2022/07/19 08:32:43;;;;;;;5.87;3.60;;;;;;;25.40;50.17;100474.09;5090168;28;20185;-62
2022/07/19 08:35:09;;;;;;;6.93;3.30;;;;;;;25.39;50.78;100475.34;5089593;28;20174;-62
2022/07/19 08:37:34;;;;;;;9.60;3.30;;;;;;;25.39;51.04;100475.34;5089977;28;20201;-62
2022/07/19 08:40:00;;;;;;;8.30;4.00;;;;;;;25.41;50.51;100472.84;5089938;28;20167;-62
2022/07/19 08:42:26;;;;;;;6.60;3.20;;;;;;;25.46;50.52;100469.50;5090124;28;20181;-62
2022/07/19 08:44:52;;;;;;;7.57;3.00;;;;;;;25.41;50.96;100476.56;5089906;28;20241;-62
2022/07/19 08:47:18;;;;;;;6.40;3.57;;;;;;;25.43;50.51;100471.19;5090000;28;20892;-62
2022/07/19 08:49:44;;;;;;;5.90;3.47;;;;;;;25.42;50.66;100466.66;5089894;28;20452;-62
2022/07/19 08:52:10;;;;;;;9.67;3.03;;;;;;;25.44;50.53;100469.13;5089940;28;20179;-62
2022/07/19 08:54:36;;;;;;;11.47;3.40;;;;;;;25.44;51.52;100469.13;5089685;28;20416;-62
2022/07/19 08:59:45;;;;;;;6.30;3.37;;;;;;;25.55;50.65;100472.75;5083836;28;20189;-62
2022/07/19 09:02:10;;;;;;;6.40;3.27;;;;;;;25.60;50.45;100464.47;5089693;28;20424;-62
2022/07/19 09:04:36;;;;;;;9.63;3.50;;;;;;;25.55;50.38;100470.69;5088933;28;20693;-62
2022/07/19 09:07:02;;;;;;;9.50;4.10;;;;;;;25.55;50.34;100470.69;5089121;28;20221;-62
2022/07/19 09:09:34;;;;;;;6.70;3.40;;;;;;;25.55;50.52;100467.81;5088790;28;20226;-62
2022/07/19 09:12:00;;;;;;;8.50;3.77;;;;;;;25.51;50.88;100464.13;5091394;28;20892;-62
2022/07/19 09:14:27;;;;;;;4.97;3.43;;;;;;;25.60;50.18;100470.25;5090955;28;20420;-62
2022/07/19 09:17:02;;;;;;;7.67;3.60;;;;;;;25.56;50.65;100463.66;5089356;28;20455;-62
2022/07/19 09:19:35;;;;;;;7.23;3.40;;;;;;;25.60;50.27;100455.78;5089666;28;20400;-62
2022/07/19 09:22:04;;;;;;;8.60;3.60;;;;;;;25.66;50.05;100453.25;5089612;28;20953;-62
2022/07/19 09:24:31;;;;;;;9.27;2.80;;;;;;;25.61;50.46;100454.53;5089316;28;20440;-62
2022/07/19 09:27:06;;;;;;;5.40;3.10;;;;;;;25.62;50.16;100447.50;5082091;28;20509;-62
2022/07/19 09:29:32;;;;;;;9.93;3.30;;;;;;;25.66;49.99;100456.97;5087928;28;20463;-62
2022/07/19 09:32:01;;;;;;;8.40;3.77;;;;;;;25.67;49.73;100458.59;5089350;28;20424;-63
2022/07/19 09:34:30;;;;;;;8.13;3.47;;;;;;;25.69;49.57;100455.28;5089548;28;20814;-63
2022/07/19 09:37:16;;;;;;;8.20;2.93;;;;;;;25.73;49.11;100448.22;5093472;28;20831;-63
2022/07/19 09:39:45;;;;;;;6.20;3.10;;;;;;;25.74;49.39;100454.84;5093261;28;20463;-63
2022/07/19 09:42:34;;;;;;;6.00;3.33;;;;;;;25.69;49.48;100447.41;5092151;28;20427;-63
2022/07/19 09:45:01;;;;;;;7.30;3.87;;;;;;;25.76;49.28;100438.69;5089741;28;20455;-63
2022/07/19 09:47:34;;;;;;;5.37;3.27;;;;;;;25.73;49.76;100436.66;5092953;28;20788;-63
2022/07/19 09:50:01;;;;;;;7.87;3.53;;;;;;;25.74;49.46;100444.06;5092861;28;20467;-62
2022/07/19 09:52:26;;;;;;;6.20;3.33;;;;;;;25.74;49.52;100435.41;5092556;28;20419;-62
2022/07/19 09:54:52;;;;;;;8.17;3.20;;;;;;;25.80;49.16;100439.47;5092759;28;20412;-62
2022/07/19 09:57:22;;;;;;;11.43;3.40;;;;;;;25.85;49.37;100427.44;5092990;28;20186;-62
2022/07/19 09:59:50;;;;;;;9.30;3.17;;;;;;;25.86;49.78;100431.16;5075790;28;20257;-62
2022/07/19 10:02:16;;;;;;;4.57;3.00;;;;;;;25.83;49.85;100418.38;5076621;28;20453;-62
2022/07/19 10:04:41;;;;;;;9.50;3.70;;;;;;;25.81;49.94;100412.19;5094298;28;20416;-62
2022/07/19 10:07:06;;;;;;;10.43;3.80;;;;;;;25.86;49.98;100419.59;5094334;28;20194;-62
2022/07/19 10:09:32;;;;;;;7.90;3.40;;;;;;;25.89;49.85;100407.16;5092414;28;20226;-62
2022/07/19 10:11:57;;;;;;;8.50;3.50;;;;;;;25.89;49.10;100412.97;5094331;28;20539;-62
2022/07/19 10:14:23;;;;;;;5.90;3.63;;;;;;;25.94;49.39;100406.75;5094080;28;20182;-63
2022/07/19 10:17:07;;;;;;;6.70;3.13;;;;;;;25.93;49.47;100402.19;5094415;28;20166;-63
2022/07/19 10:19:43;;;;;;;8.10;3.90;;;;;;;25.90;49.58;100400.94;5092919;28;20296;-63
2022/07/19 10:22:13;;;;;;;5.37;2.73;;;;;;;25.89;50.04;100393.50;5091099;28;20428;-62
2022/07/19 10:24:41;;;;;;;10.30;3.37;;;;;;;25.85;49.88;100389.03;5090713;28;20420;-62
2022/07/19 10:27:06;;;;;;;6.77;3.37;;;;;;;25.87;50.00;100390.22;5084565;28;20434;-62
2022/07/19 10:29:32;;;;;;;5.00;3.20;;;;;;;25.92;50.23;100378.22;5090363;28;20931;-62
2022/07/19 10:32:09;;;;;;;6.37;2.93;;;;;;;25.89;49.49;100372.44;5093595;28;20174;-61
2022/07/19 10:34:34;;;;;;;9.53;3.53;;;;;;;25.89;50.21;100372.44;5093812;28;20158;-61
2022/07/19 10:37:00;;;;;;;8.00;3.23;;;;;;;25.87;50.38;100361.31;5092715;28;20498;-61
2022/07/19 10:39:35;;;;;;;6.63;2.87;;;;;;;25.97;50.15;100362.47;5093484;28;20649;-61
2022/07/19 10:42:14;;;;;;;6.37;3.07;;;;;;;25.96;50.38;100358.75;5074042;28;20290;-61
2022/07/19 10:44:54;;;;;;;7.63;2.97;;;;;;;26.01;50.48;100357.47;5073430;28;20471;-63
2022/07/19 10:47:21;;;;;;;6.00;2.90;;;;;;;26.10;49.72;100338.31;5072623;28;20413;-63
2022/07/19 10:49:47;;;;;;;10.43;3.40;;;;;;;26.13;49.73;100342.41;5082804;28;20757;-63
2022/07/19 10:52:28;;;;;;;6.80;3.57;;;;;;;26.20;48.86;100342.34;5093685;28;20424;-63
2022/07/19 10:55:18;;;;;;;5.50;2.93;;;;;;;26.27;47.61;100331.50;5091610;28;20515;-63
2022/07/19 10:57:48;;;;;;;3.50;2.67;;;;;;;26.18;48.41;100331.19;5071828;28;20385;-63
2022/07/19 11:00:43;;;;;;;6.80;3.50;;;;;;;26.16;47.68;100325.03;5072077;28;20448;-63
2022/07/19 11:03:21;;;;;;;4.83;2.70;;;;;;;26.19;47.47;100326.25;5066731;28;20440;-63
2022/07/19 11:05:57;;;;;;;7.73;2.87;;;;;;;26.22;47.27;100323.28;5071727;28;20800;-63
2022/07/19 11:08:39;;;;;;;4.50;2.80;;;;;;;26.24;47.61;100308.41;5071441;28;20576;-63
2022/07/19 11:11:12;;;;;;;4.13;2.77;;;;;;;26.28;46.62;100309.16;5073018;28;20476;-63
2022/07/19 11:13:38;;;;;;;10.03;3.20;;;;;;;26.26;46.57;100306.72;5072684;28;20451;-63
2022/07/19 11:16:04;;;;;;;22.33;3.70;;;;;;;26.29;46.41;100308.72;5072938;28;20790;-63
2022/07/19 11:18:31;;;;;;;5.50;3.10;;;;;;;26.29;46.05;100305.03;5073244;28;20409;-63
2022/07/19 11:20:57;;;;;;;7.50;3.40;;;;;;;26.28;46.16;100297.56;5089933;28;20432;-63
2022/07/19 11:23:30;;;;;;;8.53;3.03;;;;;;;26.41;45.69;100293.69;5093299;28;20487;-63